sensor_id;sensor_type;location;lat;lon;timestamp;P1;durP1;ratioP1;P2;durP2;ratioP2
29314;SDS011;16320;53.954;9.506;2023-08-21T00:01:31;52.35;;;23.27;;
29314;SDS011;16320;53.954;9.506;2023-08-21T00:04:35;38.08;;;21.73;;
29314;SDS011;16320;53.954;9.506;2023-08-21T00:07:40;48.47;;;23.60;;
29314;SDS011;16320;53.954;9.506;2023-08-21T00:10:44;46.67;;;23.77;;
29314;SDS011;16320;53.954;9.506;2023-08-21T00:13:49;46.92;;;24.63;;
29314;SDS011;16320;53.954;9.506;2023-08-21T00:16:53;48.55;;;24.25;;
29314;SDS011;16320;53.954;9.506;2023-08-21T00:19:58;51.40;;;24.23;;
29314;SDS011;16320;53.954;9.506;2023-08-21T00:23:02;47.72;;;23.75;;
29314;SDS011;16320;53.954;9.506;2023-08-21T00:26:07;55.60;;;25.67;;
29314;SDS011;16320;53.954;9.506;2023-08-21T00:29:11;53.33;;;25.50;;
29314;SDS011;16320;53.954;9.506;2023-08-21T00:32:16;57.42;;;26.02;;
29314;SDS011;16320;53.954;9.506;2023-08-21T00:35:21;64.18;;;27.95;;
29314;SDS011;16320;53.954;9.506;2023-08-21T00:38:25;54.05;;;26.23;;
29314;SDS011;16320;53.954;9.506;2023-08-21T00:41:30;65.82;;;29.77;;
29314;SDS011;16320;53.954;9.506;2023-08-21T00:44:35;58.95;;;28.63;;
29314;SDS011;16320;53.954;9.506;2023-08-21T00:47:39;58.58;;;27.95;;
29314;SDS011;16320;53.954;9.506;2023-08-21T00:50:44;59.40;;;27.35;;
29314;SDS011;16320;53.954;9.506;2023-08-21T00:53:49;54.40;;;29.23;;
29314;SDS011;16320;53.954;9.506;2023-08-21T00:56:54;64.93;;;28.35;;
29314;SDS011;16320;53.954;9.506;2023-08-21T01:00:02;59.72;;;28.45;;
29314;SDS011;16320;53.954;9.506;2023-08-21T01:03:08;64.47;;;29.05;;
29314;SDS011;16320;53.954;9.506;2023-08-21T01:06:13;69.68;;;30.85;;
29314;SDS011;16320;53.954;9.506;2023-08-21T01:09:21;60.67;;;29.67;;
29314;SDS011;16320;53.954;9.506;2023-08-21T01:13:03;60.97;;;29.40;;
29314;SDS011;16320;53.954;9.506;2023-08-21T01:16:06;64.47;;;30.23;;
29314;SDS011;16320;53.954;9.506;2023-08-21T01:19:19;63.53;;;28.10;;
29314;SDS011;16320;53.954;9.506;2023-08-21T01:22:41;59.63;;;27.23;;
29314;SDS011;16320;53.954;9.506;2023-08-21T01:25:53;68.75;;;30.42;;
29314;SDS011;16320;53.954;9.506;2023-08-21T01:28:57;62.83;;;29.70;;
29314;SDS011;16320;53.954;9.506;2023-08-21T01:35:36;60.33;;;29.95;;
29314;SDS011;16320;53.954;9.506;2023-08-21T01:38:40;59.72;;;28.80;;
29314;SDS011;16320;53.954;9.506;2023-08-21T01:41:46;53.60;;;25.48;;
29314;SDS011;16320;53.954;9.506;2023-08-21T01:44:51;50.65;;;24.50;;
29314;SDS011;16320;53.954;9.506;2023-08-21T01:47:55;46.47;;;24.20;;
29314;SDS011;16320;53.954;9.506;2023-08-21T01:51:03;52.17;;;22.90;;
29314;SDS011;16320;53.954;9.506;2023-08-21T01:54:07;51.58;;;23.52;;
29314;SDS011;16320;53.954;9.506;2023-08-21T01:57:12;48.78;;;23.75;;
29314;SDS011;16320;53.954;9.506;2023-08-21T02:00:16;46.80;;;23.10;;
29314;SDS011;16320;53.954;9.506;2023-08-21T02:03:24;52.40;;;25.65;;
29314;SDS011;16320;53.954;9.506;2023-08-21T02:06:30;42.08;;;24.77;;
29314;SDS011;16320;53.954;9.506;2023-08-21T02:09:34;60.70;;;26.15;;
29314;SDS011;16320;53.954;9.506;2023-08-21T02:12:39;50.55;;;27.77;;
29314;SDS011;16320;53.954;9.506;2023-08-21T02:15:44;57.40;;;27.02;;
29314;SDS011;16320;53.954;9.506;2023-08-21T02:18:48;69.38;;;29.55;;
29314;SDS011;16320;53.954;9.506;2023-08-21T02:21:53;58.63;;;29.35;;
29314;SDS011;16320;53.954;9.506;2023-08-21T02:24:58;66.82;;;29.92;;
29314;SDS011;16320;53.954;9.506;2023-08-21T02:28:03;64.65;;;32.50;;
29314;SDS011;16320;53.954;9.506;2023-08-21T02:31:11;68.22;;;32.00;;
29314;SDS011;16320;53.954;9.506;2023-08-21T02:34:15;72.00;;;33.33;;
29314;SDS011;16320;53.954;9.506;2023-08-21T02:37:19;67.03;;;32.72;;
29314;SDS011;16320;53.954;9.506;2023-08-21T02:40:24;74.35;;;32.63;;
29314;SDS011;16320;53.954;9.506;2023-08-21T02:43:28;72.72;;;33.17;;
29314;SDS011;16320;53.954;9.506;2023-08-21T02:46:33;59.03;;;30.95;;
29314;SDS011;16320;53.954;9.506;2023-08-21T02:49:40;66.65;;;32.53;;
29314;SDS011;16320;53.954;9.506;2023-08-21T02:52:44;79.78;;;34.08;;
29314;SDS011;16320;53.954;9.506;2023-08-21T02:55:48;68.63;;;32.63;;
29314;SDS011;16320;53.954;9.506;2023-08-21T02:58:53;71.95;;;35.42;;
29314;SDS011;16320;53.954;9.506;2023-08-21T03:01:57;70.20;;;33.38;;
29314;SDS011;16320;53.954;9.506;2023-08-21T03:05:02;84.05;;;35.15;;
29314;SDS011;16320;53.954;9.506;2023-08-21T03:08:08;73.80;;;36.25;;
29314;SDS011;16320;53.954;9.506;2023-08-21T03:11:12;78.28;;;37.45;;
29314;SDS011;16320;53.954;9.506;2023-08-21T03:14:17;81.53;;;37.13;;
29314;SDS011;16320;53.954;9.506;2023-08-21T03:17:22;95.35;;;35.78;;
29314;SDS011;16320;53.954;9.506;2023-08-21T03:20:27;75.47;;;35.03;;
29314;SDS011;16320;53.954;9.506;2023-08-21T03:23:32;78.32;;;35.65;;
29314;SDS011;16320;53.954;9.506;2023-08-21T03:26:37;73.70;;;34.08;;
29314;SDS011;16320;53.954;9.506;2023-08-21T03:29:42;73.18;;;33.47;;
29314;SDS011;16320;53.954;9.506;2023-08-21T03:32:52;68.90;;;33.15;;
29314;SDS011;16320;53.954;9.506;2023-08-21T03:35:56;72.57;;;32.38;;
29314;SDS011;16320;53.954;9.506;2023-08-21T03:39:01;73.85;;;35.67;;
29314;SDS011;16320;53.954;9.506;2023-08-21T03:42:07;70.38;;;32.58;;
29314;SDS011;16320;53.954;9.506;2023-08-21T03:45:12;81.15;;;34.78;;
29314;SDS011;16320;53.954;9.506;2023-08-21T03:48:16;82.05;;;34.33;;
29314;SDS011;16320;53.954;9.506;2023-08-21T03:51:21;98.90;;;34.85;;
29314;SDS011;16320;53.954;9.506;2023-08-21T03:54:25;74.07;;;32.10;;
29314;SDS011;16320;53.954;9.506;2023-08-21T03:57:30;65.13;;;30.48;;
29314;SDS011;16320;53.954;9.506;2023-08-21T04:00:34;66.50;;;31.13;;
29314;SDS011;16320;53.954;9.506;2023-08-21T04:03:39;67.85;;;30.13;;
29314;SDS011;16320;53.954;9.506;2023-08-21T04:06:43;64.60;;;30.05;;
29314;SDS011;16320;53.954;9.506;2023-08-21T04:09:48;64.80;;;29.33;;
29314;SDS011;16320;53.954;9.506;2023-08-21T04:12:52;57.20;;;29.77;;
29314;SDS011;16320;53.954;9.506;2023-08-21T04:15:56;60.15;;;28.50;;
29314;SDS011;16320;53.954;9.506;2023-08-21T04:19:01;54.17;;;27.25;;
29314;SDS011;16320;53.954;9.506;2023-08-21T04:22:06;57.50;;;27.88;;
29314;SDS011;16320;53.954;9.506;2023-08-21T04:25:11;59.88;;;27.58;;
29314;SDS011;16320;53.954;9.506;2023-08-21T04:28:15;52.75;;;27.38;;
29314;SDS011;16320;53.954;9.506;2023-08-21T04:31:19;52.78;;;28.23;;
29314;SDS011;16320;53.954;9.506;2023-08-21T04:34:23;50.25;;;27.08;;
29314;SDS011;16320;53.954;9.506;2023-08-21T04:37:28;56.33;;;27.58;;
29314;SDS011;16320;53.954;9.506;2023-08-21T04:40:32;54.67;;;28.17;;
29314;SDS011;16320;53.954;9.506;2023-08-21T04:43:37;51.00;;;27.02;;
29314;SDS011;16320;53.954;9.506;2023-08-21T04:46:41;49.10;;;25.92;;
29314;SDS011;16320;53.954;9.506;2023-08-21T04:49:48;49.00;;;25.25;;
29314;SDS011;16320;53.954;9.506;2023-08-21T04:52:55;48.25;;;25.85;;
29314;SDS011;16320;53.954;9.506;2023-08-21T04:56:00;47.08;;;23.95;;
29314;SDS011;16320;53.954;9.506;2023-08-21T04:59:04;45.80;;;23.00;;
29314;SDS011;16320;53.954;9.506;2023-08-21T05:02:08;43.58;;;23.15;;
29314;SDS011;16320;53.954;9.506;2023-08-21T05:05:13;40.90;;;22.27;;
29314;SDS011;16320;53.954;9.506;2023-08-21T05:08:17;48.70;;;22.83;;
29314;SDS011;16320;53.954;9.506;2023-08-21T05:11:21;46.95;;;23.13;;
29314;SDS011;16320;53.954;9.506;2023-08-21T05:14:26;44.30;;;22.55;;
29314;SDS011;16320;53.954;9.506;2023-08-21T05:17:30;47.85;;;24.02;;
29314;SDS011;16320;53.954;9.506;2023-08-21T05:20:34;46.33;;;24.23;;
29314;SDS011;16320;53.954;9.506;2023-08-21T05:23:39;42.30;;;21.77;;
29314;SDS011;16320;53.954;9.506;2023-08-21T05:26:43;37.20;;;20.95;;
29314;SDS011;16320;53.954;9.506;2023-08-21T05:29:47;43.15;;;22.02;;
29314;SDS011;16320;53.954;9.506;2023-08-21T05:32:54;51.92;;;23.17;;
29314;SDS011;16320;53.954;9.506;2023-08-21T05:35:58;43.50;;;23.00;;
29314;SDS011;16320;53.954;9.506;2023-08-21T05:39:04;46.88;;;23.52;;
29314;SDS011;16320;53.954;9.506;2023-08-21T05:42:09;43.08;;;22.48;;
29314;SDS011;16320;53.954;9.506;2023-08-21T05:45:14;45.40;;;21.70;;
29314;SDS011;16320;53.954;9.506;2023-08-21T05:48:19;44.72;;;21.98;;
29314;SDS011;16320;53.954;9.506;2023-08-21T05:51:23;43.40;;;22.23;;
29314;SDS011;16320;53.954;9.506;2023-08-21T05:54:28;52.40;;;22.75;;
29314;SDS011;16320;53.954;9.506;2023-08-21T05:57:34;51.25;;;22.50;;
29314;SDS011;16320;53.954;9.506;2023-08-21T06:00:38;44.83;;;22.10;;
29314;SDS011;16320;53.954;9.506;2023-08-21T06:03:43;45.90;;;21.85;;
29314;SDS011;16320;53.954;9.506;2023-08-21T06:06:48;43.88;;;22.23;;
29314;SDS011;16320;53.954;9.506;2023-08-21T06:09:52;46.53;;;22.33;;
29314;SDS011;16320;53.954;9.506;2023-08-21T06:12:56;43.13;;;21.40;;
29314;SDS011;16320;53.954;9.506;2023-08-21T06:16:01;44.30;;;20.58;;
29314;SDS011;16320;53.954;9.506;2023-08-21T06:19:06;40.33;;;19.83;;
29314;SDS011;16320;53.954;9.506;2023-08-21T06:22:11;41.33;;;18.00;;
29314;SDS011;16320;53.954;9.506;2023-08-21T06:28:20;31.70;;;17.00;;
29314;SDS011;16320;53.954;9.506;2023-08-21T06:34:28;38.35;;;14.73;;
29314;SDS011;16320;53.954;9.506;2023-08-21T06:37:33;32.33;;;15.07;;
29314;SDS011;16320;53.954;9.506;2023-08-21T06:40:38;30.08;;;11.65;;
29314;SDS011;16320;53.954;9.506;2023-08-21T06:43:42;33.42;;;11.10;;
29314;SDS011;16320;53.954;9.506;2023-08-21T06:46:48;26.58;;;9.50;;
29314;SDS011;16320;53.954;9.506;2023-08-21T06:49:52;22.92;;;8.70;;
29314;SDS011;16320;53.954;9.506;2023-08-21T06:52:57;30.15;;;9.40;;
29314;SDS011;16320;53.954;9.506;2023-08-21T06:56:02;22.13;;;7.63;;
29314;SDS011;16320;53.954;9.506;2023-08-21T06:59:06;22.90;;;8.13;;
29314;SDS011;16320;53.954;9.506;2023-08-21T07:02:11;15.38;;;7.43;;
29314;SDS011;16320;53.954;9.506;2023-08-21T07:05:15;21.95;;;6.50;;
29314;SDS011;16320;53.954;9.506;2023-08-21T07:08:21;20.65;;;6.22;;
29314;SDS011;16320;53.954;9.506;2023-08-21T07:11:29;21.73;;;5.75;;
29314;SDS011;16320;53.954;9.506;2023-08-21T07:14:34;20.70;;;5.85;;
29314;SDS011;16320;53.954;9.506;2023-08-21T07:17:38;21.30;;;5.25;;
29314;SDS011;16320;53.954;9.506;2023-08-21T07:20:42;17.33;;;4.97;;
29314;SDS011;16320;53.954;9.506;2023-08-21T07:23:47;24.40;;;4.88;;
29314;SDS011;16320;53.954;9.506;2023-08-21T07:26:51;16.30;;;4.38;;
29314;SDS011;16320;53.954;9.506;2023-08-21T07:29:56;16.90;;;3.30;;
29314;SDS011;16320;53.954;9.506;2023-08-21T07:33:00;12.02;;;3.17;;
29314;SDS011;16320;53.954;9.506;2023-08-21T07:36:06;15.90;;;3.30;;
29314;SDS011;16320;53.954;9.506;2023-08-21T07:39:10;20.85;;;3.95;;
29314;SDS011;16320;53.954;9.506;2023-08-21T07:42:15;10.45;;;3.25;;
29314;SDS011;16320;53.954;9.506;2023-08-21T07:45:19;9.52;;;2.88;;
29314;SDS011;16320;53.954;9.506;2023-08-21T07:48:24;17.55;;;3.25;;
29314;SDS011;16320;53.954;9.506;2023-08-21T07:51:28;12.68;;;2.05;;
29314;SDS011;16320;53.954;9.506;2023-08-21T07:54:33;12.02;;;2.00;;
29314;SDS011;16320;53.954;9.506;2023-08-21T07:57:38;10.13;;;2.58;;
29314;SDS011;16320;53.954;9.506;2023-08-21T08:00:42;14.32;;;2.70;;
29314;SDS011;16320;53.954;9.506;2023-08-21T08:03:47;13.63;;;2.55;;
29314;SDS011;16320;53.954;9.506;2023-08-21T08:06:54;10.52;;;1.73;;
29314;SDS011;16320;53.954;9.506;2023-08-21T08:09:58;7.15;;;2.10;;
29314;SDS011;16320;53.954;9.506;2023-08-21T08:13:03;10.48;;;1.98;;
29314;SDS011;16320;53.954;9.506;2023-08-21T08:16:07;12.40;;;2.08;;
29314;SDS011;16320;53.954;9.506;2023-08-21T08:19:12;8.13;;;1.90;;
29314;SDS011;16320;53.954;9.506;2023-08-21T08:22:16;6.50;;;1.73;;
29314;SDS011;16320;53.954;9.506;2023-08-21T08:25:21;4.47;;;1.40;;
29314;SDS011;16320;53.954;9.506;2023-08-21T08:28:26;7.90;;;1.73;;
29314;SDS011;16320;53.954;9.506;2023-08-21T08:31:30;5.97;;;1.42;;
29314;SDS011;16320;53.954;9.506;2023-08-21T08:34:35;8.98;;;1.77;;
29314;SDS011;16320;53.954;9.506;2023-08-21T08:37:40;9.15;;;1.98;;
29314;SDS011;16320;53.954;9.506;2023-08-21T08:40:45;8.77;;;2.30;;
29314;SDS011;16320;53.954;9.506;2023-08-21T08:43:50;6.03;;;1.35;;
29314;SDS011;16320;53.954;9.506;2023-08-21T08:46:59;6.70;;;1.42;;
29314;SDS011;16320;53.954;9.506;2023-08-21T08:50:05;6.03;;;1.40;;
29314;SDS011;16320;53.954;9.506;2023-08-21T08:53:12;9.82;;;2.03;;
29314;SDS011;16320;53.954;9.506;2023-08-21T08:56:20;12.48;;;1.83;;
29314;SDS011;16320;53.954;9.506;2023-08-21T08:59:25;6.63;;;1.40;;
29314;SDS011;16320;53.954;9.506;2023-08-21T09:02:29;7.18;;;1.70;;
29314;SDS011;16320;53.954;9.506;2023-08-21T09:05:33;4.18;;;1.13;;
29314;SDS011;16320;53.954;9.506;2023-08-21T09:08:38;7.57;;;1.80;;
29314;SDS011;16320;53.954;9.506;2023-08-21T09:11:56;6.03;;;1.55;;
29314;SDS011;16320;53.954;9.506;2023-08-21T09:15:01;11.93;;;1.80;;
29314;SDS011;16320;53.954;9.506;2023-08-21T09:18:12;10.90;;;1.77;;
29314;SDS011;16320;53.954;9.506;2023-08-21T09:21:19;9.63;;;2.00;;
29314;SDS011;16320;53.954;9.506;2023-08-21T09:24:25;5.22;;;1.30;;
29314;SDS011;16320;53.954;9.506;2023-08-21T09:27:30;7.00;;;1.60;;
29314;SDS011;16320;53.954;9.506;2023-08-21T09:30:47;7.30;;;1.50;;
29314;SDS011;16320;53.954;9.506;2023-08-21T09:34:01;6.03;;;1.40;;
29314;SDS011;16320;53.954;9.506;2023-08-21T09:37:10;9.50;;;1.45;;
29314;SDS011;16320;53.954;9.506;2023-08-21T09:40:15;6.25;;;1.13;;
29314;SDS011;16320;53.954;9.506;2023-08-21T09:43:20;4.57;;;1.50;;
29314;SDS011;16320;53.954;9.506;2023-08-21T09:46:27;10.60;;;1.63;;
29314;SDS011;16320;53.954;9.506;2023-08-21T09:49:32;6.47;;;1.05;;
29314;SDS011;16320;53.954;9.506;2023-08-21T09:52:38;7.88;;;2.33;;
29314;SDS011;16320;53.954;9.506;2023-08-21T09:55:42;9.65;;;1.38;;
29314;SDS011;16320;53.954;9.506;2023-08-21T09:58:47;12.57;;;1.40;;
29314;SDS011;16320;53.954;9.506;2023-08-21T10:01:53;5.13;;;0.95;;
29314;SDS011;16320;53.954;9.506;2023-08-21T10:04:58;5.28;;;0.90;;
29314;SDS011;16320;53.954;9.506;2023-08-21T10:08:04;3.63;;;1.10;;
29314;SDS011;16320;53.954;9.506;2023-08-21T10:11:10;6.47;;;1.40;;
29314;SDS011;16320;53.954;9.506;2023-08-21T10:14:15;5.35;;;1.20;;
29314;SDS011;16320;53.954;9.506;2023-08-21T10:17:22;6.28;;;1.30;;
29314;SDS011;16320;53.954;9.506;2023-08-21T10:20:26;11.00;;;2.15;;
29314;SDS011;16320;53.954;9.506;2023-08-21T10:23:34;6.10;;;1.00;;
29314;SDS011;16320;53.954;9.506;2023-08-21T10:26:48;7.05;;;1.10;;
29314;SDS011;16320;53.954;9.506;2023-08-21T10:29:57;6.65;;;1.20;;
29314;SDS011;16320;53.954;9.506;2023-08-21T10:33:01;5.93;;;1.13;;
29314;SDS011;16320;53.954;9.506;2023-08-21T10:36:06;8.25;;;1.63;;
29314;SDS011;16320;53.954;9.506;2023-08-21T10:45:53;5.05;;;1.20;;
29314;SDS011;16320;53.954;9.506;2023-08-21T10:49:01;6.95;;;1.05;;
29314;SDS011;16320;53.954;9.506;2023-08-21T10:52:05;6.28;;;1.38;;
29314;SDS011;16320;53.954;9.506;2023-08-21T10:55:14;10.68;;;1.23;;
29314;SDS011;16320;53.954;9.506;2023-08-21T10:58:20;2.42;;;0.75;;
29314;SDS011;16320;53.954;9.506;2023-08-21T11:01:24;5.40;;;0.80;;
29314;SDS011;16320;53.954;9.506;2023-08-21T11:04:29;5.63;;;0.77;;
29314;SDS011;16320;53.954;9.506;2023-08-21T11:07:45;3.75;;;0.82;;
29314;SDS011;16320;53.954;9.506;2023-08-21T11:10:51;3.88;;;1.00;;
29314;SDS011;16320;53.954;9.506;2023-08-21T11:13:56;3.47;;;0.70;;
29314;SDS011;16320;53.954;9.506;2023-08-21T11:17:01;4.10;;;0.70;;
29314;SDS011;16320;53.954;9.506;2023-08-21T11:20:06;2.45;;;0.90;;
29314;SDS011;16320;53.954;9.506;2023-08-21T11:23:12;7.45;;;1.40;;
29314;SDS011;16320;53.954;9.506;2023-08-21T11:26:16;4.32;;;0.63;;
29314;SDS011;16320;53.954;9.506;2023-08-21T11:29:24;2.42;;;0.77;;
29314;SDS011;16320;53.954;9.506;2023-08-21T11:32:29;5.97;;;0.60;;
29314;SDS011;16320;53.954;9.506;2023-08-21T11:35:34;62.45;;;6.05;;
29314;SDS011;16320;53.954;9.506;2023-08-21T11:38:40;2.67;;;0.55;;
29314;SDS011;16320;53.954;9.506;2023-08-21T11:41:57;3.83;;;0.63;;
29314;SDS011;16320;53.954;9.506;2023-08-21T11:45:02;5.20;;;0.68;;
29314;SDS011;16320;53.954;9.506;2023-08-21T11:48:08;4.45;;;0.80;;
29314;SDS011;16320;53.954;9.506;2023-08-21T11:51:13;2.17;;;0.60;;
29314;SDS011;16320;53.954;9.506;2023-08-21T11:54:17;3.22;;;0.80;;
29314;SDS011;16320;53.954;9.506;2023-08-21T11:57:22;2.13;;;0.50;;
29314;SDS011;16320;53.954;9.506;2023-08-21T12:00:28;3.33;;;0.57;;
29314;SDS011;16320;53.954;9.506;2023-08-21T12:03:37;2.33;;;0.70;;
29314;SDS011;16320;53.954;9.506;2023-08-21T12:06:44;2.15;;;0.60;;
29314;SDS011;16320;53.954;9.506;2023-08-21T12:09:49;1.40;;;0.60;;
29314;SDS011;16320;53.954;9.506;2023-08-21T12:12:54;3.33;;;1.00;;
29314;SDS011;16320;53.954;9.506;2023-08-21T12:15:59;2.92;;;0.70;;
29314;SDS011;16320;53.954;9.506;2023-08-21T12:19:03;3.50;;;0.77;;
29314;SDS011;16320;53.954;9.506;2023-08-21T12:22:08;2.70;;;1.00;;
29314;SDS011;16320;53.954;9.506;2023-08-21T12:25:13;2.17;;;0.60;;
29314;SDS011;16320;53.954;9.506;2023-08-21T12:28:18;4.57;;;0.65;;
29314;SDS011;16320;53.954;9.506;2023-08-21T12:31:22;2.40;;;0.80;;
29314;SDS011;16320;53.954;9.506;2023-08-21T12:34:27;3.67;;;0.70;;
29314;SDS011;16320;53.954;9.506;2023-08-21T12:37:31;1.27;;;0.60;;
29314;SDS011;16320;53.954;9.506;2023-08-21T12:40:36;2.75;;;0.60;;
29314;SDS011;16320;53.954;9.506;2023-08-21T12:43:40;6.18;;;0.88;;
29314;SDS011;16320;53.954;9.506;2023-08-21T12:46:45;7.18;;;1.02;;
29314;SDS011;16320;53.954;9.506;2023-08-21T12:49:49;3.08;;;0.57;;
29314;SDS011;16320;53.954;9.506;2023-08-21T12:52:53;0.75;;;0.55;;
29314;SDS011;16320;53.954;9.506;2023-08-21T12:55:58;2.50;;;1.08;;
29314;SDS011;16320;53.954;9.506;2023-08-21T12:59:02;5.43;;;0.80;;
29314;SDS011;16320;53.954;9.506;2023-08-21T13:02:07;3.08;;;0.80;;
29314;SDS011;16320;53.954;9.506;2023-08-21T13:05:12;2.17;;;0.73;;
29314;SDS011;16320;53.954;9.506;2023-08-21T13:08:16;2.92;;;0.57;;
29314;SDS011;16320;53.954;9.506;2023-08-21T13:11:20;3.72;;;0.73;;
29314;SDS011;16320;53.954;9.506;2023-08-21T13:14:25;5.50;;;1.10;;
29314;SDS011;16320;53.954;9.506;2023-08-21T13:17:33;2.97;;;0.90;;
29314;SDS011;16320;53.954;9.506;2023-08-21T13:20:39;3.05;;;0.57;;
29314;SDS011;16320;53.954;9.506;2023-08-21T13:23:44;4.47;;;0.88;;
29314;SDS011;16320;53.954;9.506;2023-08-21T13:26:48;4.40;;;0.73;;
29314;SDS011;16320;53.954;9.506;2023-08-21T13:29:52;5.63;;;1.00;;
29314;SDS011;16320;53.954;9.506;2023-08-21T13:32:57;3.35;;;0.80;;
29314;SDS011;16320;53.954;9.506;2023-08-21T13:36:02;4.43;;;0.95;;
29314;SDS011;16320;53.954;9.506;2023-08-21T13:39:07;4.97;;;0.93;;
29314;SDS011;16320;53.954;9.506;2023-08-21T13:42:13;3.53;;;0.80;;
29314;SDS011;16320;53.954;9.506;2023-08-21T13:45:19;2.60;;;0.63;;
29314;SDS011;16320;53.954;9.506;2023-08-21T13:48:23;5.80;;;1.27;;
29314;SDS011;16320;53.954;9.506;2023-08-21T13:51:27;1.67;;;0.60;;
29314;SDS011;16320;53.954;9.506;2023-08-21T13:54:32;1.85;;;0.68;;
29314;SDS011;16320;53.954;9.506;2023-08-21T13:57:37;2.80;;;0.88;;
29314;SDS011;16320;53.954;9.506;2023-08-21T14:00:42;3.28;;;0.85;;
29314;SDS011;16320;53.954;9.506;2023-08-21T14:03:48;1.77;;;0.80;;
29314;SDS011;16320;53.954;9.506;2023-08-21T14:06:52;2.03;;;0.60;;
29314;SDS011;16320;53.954;9.506;2023-08-21T14:09:57;6.97;;;1.70;;
29314;SDS011;16320;53.954;9.506;2023-08-21T14:13:02;2.85;;;0.70;;
29314;SDS011;16320;53.954;9.506;2023-08-21T14:16:07;2.67;;;0.80;;
29314;SDS011;16320;53.954;9.506;2023-08-21T14:19:12;1.67;;;0.63;;
29314;SDS011;16320;53.954;9.506;2023-08-21T14:22:17;4.05;;;0.95;;
29314;SDS011;16320;53.954;9.506;2023-08-21T14:25:21;16.17;;;1.10;;
29314;SDS011;16320;53.954;9.506;2023-08-21T14:28:26;3.45;;;1.00;;
29314;SDS011;16320;53.954;9.506;2023-08-21T14:31:30;5.15;;;1.02;;
29314;SDS011;16320;53.954;9.506;2023-08-21T14:34:35;3.03;;;0.75;;
29314;SDS011;16320;53.954;9.506;2023-08-21T14:37:39;1.52;;;0.60;;
29314;SDS011;16320;53.954;9.506;2023-08-21T14:40:43;4.50;;;1.05;;
29314;SDS011;16320;53.954;9.506;2023-08-21T14:43:48;3.92;;;0.80;;
29314;SDS011;16320;53.954;9.506;2023-08-21T14:46:54;4.88;;;0.85;;
29314;SDS011;16320;53.954;9.506;2023-08-21T14:50:05;1.83;;;0.80;;
29314;SDS011;16320;53.954;9.506;2023-08-21T14:53:10;7.80;;;1.02;;
29314;SDS011;16320;53.954;9.506;2023-08-21T14:56:14;4.88;;;1.35;;
29314;SDS011;16320;53.954;9.506;2023-08-21T14:59:19;3.85;;;0.85;;
29314;SDS011;16320;53.954;9.506;2023-08-21T15:02:23;2.42;;;0.98;;
29314;SDS011;16320;53.954;9.506;2023-08-21T15:05:29;4.32;;;1.10;;
29314;SDS011;16320;53.954;9.506;2023-08-21T15:08:33;3.88;;;1.13;;
29314;SDS011;16320;53.954;9.506;2023-08-21T15:11:38;4.95;;;1.13;;
29314;SDS011;16320;53.954;9.506;2023-08-21T15:14:45;5.82;;;2.13;;
29314;SDS011;16320;53.954;9.506;2023-08-21T15:17:50;4.65;;;0.88;;
29314;SDS011;16320;53.954;9.506;2023-08-21T15:20:55;3.50;;;1.08;;
29314;SDS011;16320;53.954;9.506;2023-08-21T15:24:00;4.32;;;1.27;;
29314;SDS011;16320;53.954;9.506;2023-08-21T15:27:08;6.65;;;1.35;;
29314;SDS011;16320;53.954;9.506;2023-08-21T15:30:14;5.45;;;1.00;;
29314;SDS011;16320;53.954;9.506;2023-08-21T15:33:20;3.35;;;1.00;;
29314;SDS011;16320;53.954;9.506;2023-08-21T15:36:25;6.97;;;0.90;;
29314;SDS011;16320;53.954;9.506;2023-08-21T15:39:30;5.15;;;0.90;;
29314;SDS011;16320;53.954;9.506;2023-08-21T15:42:34;5.97;;;1.48;;
29314;SDS011;16320;53.954;9.506;2023-08-21T15:45:39;2.90;;;1.05;;
29314;SDS011;16320;53.954;9.506;2023-08-21T15:48:43;4.65;;;1.55;;
29314;SDS011;16320;53.954;9.506;2023-08-21T15:51:47;4.28;;;1.15;;
29314;SDS011;16320;53.954;9.506;2023-08-21T15:54:52;2.90;;;1.00;;
29314;SDS011;16320;53.954;9.506;2023-08-21T15:57:56;5.63;;;1.33;;
29314;SDS011;16320;53.954;9.506;2023-08-21T16:01:01;3.50;;;1.48;;
29314;SDS011;16320;53.954;9.506;2023-08-21T16:04:05;3.60;;;1.10;;
29314;SDS011;16320;53.954;9.506;2023-08-21T16:07:10;3.63;;;1.20;;
29314;SDS011;16320;53.954;9.506;2023-08-21T16:10:14;2.67;;;1.30;;
29314;SDS011;16320;53.954;9.506;2023-08-21T16:13:19;5.90;;;1.50;;
29314;SDS011;16320;53.954;9.506;2023-08-21T16:16:23;3.75;;;1.23;;
29314;SDS011;16320;53.954;9.506;2023-08-21T16:19:28;3.03;;;1.02;;
29314;SDS011;16320;53.954;9.506;2023-08-21T16:22:33;3.45;;;1.30;;
29314;SDS011;16320;53.954;9.506;2023-08-21T16:25:40;8.63;;;1.60;;
29314;SDS011;16320;53.954;9.506;2023-08-21T16:28:45;6.85;;;2.40;;
29314;SDS011;16320;53.954;9.506;2023-08-21T16:31:49;5.10;;;1.73;;
29314;SDS011;16320;53.954;9.506;2023-08-21T16:34:54;4.35;;;1.38;;
29314;SDS011;16320;53.954;9.506;2023-08-21T16:37:58;2.45;;;1.10;;
29314;SDS011;16320;53.954;9.506;2023-08-21T16:41:03;7.22;;;1.45;;
29314;SDS011;16320;53.954;9.506;2023-08-21T16:44:07;6.18;;;1.30;;
29314;SDS011;16320;53.954;9.506;2023-08-21T16:47:11;3.88;;;1.73;;
29314;SDS011;16320;53.954;9.506;2023-08-21T16:50:17;4.85;;;1.42;;
29314;SDS011;16320;53.954;9.506;2023-08-21T16:53:22;2.60;;;1.10;;
29314;SDS011;16320;53.954;9.506;2023-08-21T16:56:27;3.75;;;1.42;;
29314;SDS011;16320;53.954;9.506;2023-08-21T16:59:32;2.55;;;1.27;;
29314;SDS011;16320;53.954;9.506;2023-08-21T17:02:36;4.55;;;1.50;;
29314;SDS011;16320;53.954;9.506;2023-08-21T17:05:43;4.00;;;1.35;;
29314;SDS011;16320;53.954;9.506;2023-08-21T17:08:47;1.92;;;1.25;;
29314;SDS011;16320;53.954;9.506;2023-08-21T17:11:52;5.55;;;1.60;;
29314;SDS011;16320;53.954;9.506;2023-08-21T17:14:56;2.80;;;1.30;;
29314;SDS011;16320;53.954;9.506;2023-08-21T17:18:03;3.30;;;1.10;;
29314;SDS011;16320;53.954;9.506;2023-08-21T17:21:08;4.45;;;1.40;;
29314;SDS011;16320;53.954;9.506;2023-08-21T17:24:12;5.85;;;1.83;;
29314;SDS011;16320;53.954;9.506;2023-08-21T17:27:17;3.70;;;1.40;;
29314;SDS011;16320;53.954;9.506;2023-08-21T17:30:21;2.33;;;1.42;;
29314;SDS011;16320;53.954;9.506;2023-08-21T17:33:25;5.20;;;1.40;;
29314;SDS011;16320;53.954;9.506;2023-08-21T17:36:30;7.18;;;1.40;;
29314;SDS011;16320;53.954;9.506;2023-08-21T17:39:34;4.22;;;1.45;;
29314;SDS011;16320;53.954;9.506;2023-08-21T17:42:39;5.97;;;1.42;;
29314;SDS011;16320;53.954;9.506;2023-08-21T17:45:45;5.20;;;1.20;;
29314;SDS011;16320;53.954;9.506;2023-08-21T17:48:50;4.03;;;1.35;;
29314;SDS011;16320;53.954;9.506;2023-08-21T17:51:54;4.53;;;1.73;;
29314;SDS011;16320;53.954;9.506;2023-08-21T17:54:59;4.47;;;1.90;;
29314;SDS011;16320;53.954;9.506;2023-08-21T17:58:04;9.82;;;2.28;;
29314;SDS011;16320;53.954;9.506;2023-08-21T18:01:08;4.97;;;1.63;;
29314;SDS011;16320;53.954;9.506;2023-08-21T18:04:13;6.00;;;2.13;;
29314;SDS011;16320;53.954;9.506;2023-08-21T18:07:18;5.15;;;1.58;;
29314;SDS011;16320;53.954;9.506;2023-08-21T18:10:22;4.00;;;1.50;;
29314;SDS011;16320;53.954;9.506;2023-08-21T18:13:26;4.43;;;1.45;;
29314;SDS011;16320;53.954;9.506;2023-08-21T18:16:31;4.70;;;1.83;;
29314;SDS011;16320;53.954;9.506;2023-08-21T18:19:37;6.22;;;1.42;;
29314;SDS011;16320;53.954;9.506;2023-08-21T18:22:50;5.55;;;1.40;;
29314;SDS011;16320;53.954;9.506;2023-08-21T18:25:54;6.43;;;1.27;;
29314;SDS011;16320;53.954;9.506;2023-08-21T18:29:00;3.88;;;1.60;;
29314;SDS011;16320;53.954;9.506;2023-08-21T18:32:07;6.82;;;2.17;;
29314;SDS011;16320;53.954;9.506;2023-08-21T18:35:13;4.30;;;1.80;;
29314;SDS011;16320;53.954;9.506;2023-08-21T18:38:18;5.95;;;1.48;;